Terminal Aerodrome Forecast
Issued by NWS

Home | Current Version | Previous Version | Text Only | Print | Product List | Glossary On
Versions: 1 2 3 4 5 6 7 8 9 10 11 12 13 14 15 16
000
FTUS43 KMQT 291100
TAFSAW
TAF
KSAW 291135Z 2912/3012 32003KT P6SM -SHSN BKN020
     FM291400 32006KT P6SM VCSH BKN025
     FM291600 33010KT P6SM BKN035
     FM292100 31008KT P6SM SCT070
      AMD LTD TO CLD VIS AND WIND 3003/3011=

USA.gov is the U.S. government's official web portal to all federal, state and local government web resources and services.